Time;durP1;ratioP1;P1;durP2;ratioP2;P2;SDS_P1;SDS_P2;PMS_P1;PMS_P2;Temp;Humidity;BMP_temperature;BMP_pressure;BME280_temperature;BME280_humidity;BME280_pressure;Samples;Min_cycle;Max_cycle;Signal;HPM_P1;HPM_P2
2023/10/09 00:01:50;;;;;;;3.10;2.75;;;14.40;91.70;;;;;;5020767;28;20488;-93
2023/10/09 00:04:20;;;;;;;3.40;2.75;;;14.30;92.00;;;;;;4984462;28;20026;-94
2023/10/09 00:06:46;;;;;;;4.47;4.15;;;14.30;92.20;;;;;;4984484;28;20019;-91
2023/10/09 00:11:44;;;;;;;5.55;2.33;;;14.20;92.30;;;;;;5007012;28;20101;-93
2023/10/09 00:14:15;;;;;;;4.10;2.65;;;14.20;92.80;;;;;;5009598;28;20052;-93
2023/10/09 00:16:48;;;;;;;3.17;2.10;;;14.20;93.20;;;;;;5003473;28;20515;-93
2023/10/09 00:19:19;;;;;;;3.70;3.22;;;14.10;93.40;;;;;;5000468;28;20034;-92
2023/10/09 00:21:47;;;;;;;3.00;2.70;;;14.00;93.60;;;;;;5015319;28;20025;-93
2023/10/09 00:24:23;;;;;;;4.55;3.22;;;14.10;93.40;;;;;;5001979;28;20025;-94
2023/10/09 00:26:49;;;;;;;3.85;3.50;;;14.00;93.80;;;;;;5000341;28;20030;-92
2023/10/09 00:29:21;;;;;;;3.03;2.55;;;13.90;94.30;;;;;;5018924;28;20032;-92
2023/10/09 00:32:05;;;;;;;2.92;2.72;;;13.80;94.80;;;;;;5003389;28;20160;-93
2023/10/09 00:34:39;;;;;;;3.40;2.75;;;13.90;94.70;;;;;;5002886;28;20053;-91
2023/10/09 00:37:10;;;;;;;3.70;2.22;;;13.80;94.60;;;;;;4985804;28;20161;-92
2023/10/09 00:42:03;;;;;;;3.58;2.95;;;13.70;94.80;;;;;;5020048;28;20029;-93
2023/10/09 00:44:38;;;;;;;4.47;2.67;;;13.70;94.90;;;;;;5008416;28;20030;-93
2023/10/09 00:47:34;;;;;;;2.88;2.10;;;13.70;95.00;;;;;;4988315;28;20405;-94
2023/10/09 00:50:08;;;;;;;3.42;3.13;;;13.70;95.20;;;;;;5008733;28;20500;-91
2023/10/09 00:58:12;;;;;;;4.70;2.05;;;13.70;94.80;;;;;;4964596;28;20413;-93
2023/10/09 01:11:18;;;;;;;3.22;2.47;;;13.80;96.50;;;;;;5009827;28;20630;-91
2023/10/09 01:13:52;;;;;;;4.22;3.75;;;13.90;97.50;;;;;;4995884;28;20033;-93
2023/10/09 01:16:23;;;;;;;2.88;2.63;;;13.80;97.30;;;;;;5004308;28;20088;-94
2023/10/09 01:18:56;;;;;;;3.53;3.10;;;13.80;97.40;;;;;;5018077;28;20501;-93
2023/10/09 01:21:26;;;;;;;2.92;1.83;;;13.90;97.90;;;;;;5001812;28;20185;-93
2023/10/09 01:24:03;;;;;;;3.83;3.53;;;13.90;97.90;;;;;;5000781;28;20098;-93
2023/10/09 01:26:46;;;;;;;5.65;4.43;;;14.00;98.50;;;;;;4997343;28;20607;-91
2023/10/09 01:29:22;;;;;;;4.90;4.50;;;14.00;98.70;;;;;;4996737;28;20121;-92
2023/10/09 01:32:04;;;;;;;3.45;3.03;;;14.10;99.00;;;;;;5004511;28;20033;-92
2023/10/09 01:34:49;;;;;;;4.20;3.47;;;14.10;98.80;;;;;;4993355;28;20037;-93
2023/10/09 01:37:28;;;;;;;4.70;3.42;;;14.20;98.70;;;;;;4991066;28;20025;-91
2023/10/09 01:39:59;;;;;;;4.07;2.85;;;14.20;98.60;;;;;;4998448;28;20029;-92
2023/10/09 01:42:34;;;;;;;3.90;2.78;;;14.20;98.40;;;;;;5010892;28;20033;-92
2023/10/09 01:46:04;;;;;;;4.38;2.90;;;14.30;98.30;;;;;;5012764;28;20034;-94
2023/10/09 01:47:58;;;;;;;3.72;3.30;;;14.30;98.30;;;;;;4998797;28;20022;-93
2023/10/09 01:50:35;;;;;;;3.33;2.78;;;14.30;98.20;;;;;;5001737;28;20022;-93
2023/10/09 01:53:02;;;;;;;4.53;3.28;;;14.30;98.50;;;;;;5001994;28;20027;-93
2023/10/09 01:55:35;;;;;;;3.67;3.38;;;14.30;98.10;;;;;;4997646;28;20029;-93
2023/10/09 01:58:16;;;;;;;4.25;3.95;;;14.30;98.20;;;;;;5006707;28;20049;-93
2023/10/09 02:00:43;;;;;;;3.78;3.38;;;14.30;98.00;;;;;;4998550;28;20019;-92
2023/10/09 02:03:15;;;;;;;3.42;3.15;;;14.30;97.80;;;;;;5008867;28;20030;-92
2023/10/09 02:05:45;;;;;;;4.00;3.58;;;14.30;98.00;;;;;;5001238;28;20033;-94
2023/10/09 02:08:11;;;;;;;3.22;2.72;;;14.30;98.00;;;;;;5000927;28;20022;-93
2023/10/09 02:10:39;;;;;;;3.58;2.53;;;14.30;98.10;;;;;;4982539;28;20022;-92
2023/10/09 02:13:06;;;;;;;4.60;3.33;;;14.30;98.10;;;;;;4999962;28;20037;-90
2023/10/09 02:21:00;;;;;;;3.13;2.63;;;14.20;97.90;;;;;;5019019;28;20084;-92
2023/10/09 02:23:38;;;;;;;3.65;3.28;;;14.20;97.80;;;;;;4992968;28;20026;-92
2023/10/09 02:26:06;;;;;;;4.63;2.80;;;14.30;98.00;;;;;;5018411;28;20030;-93
2023/10/09 02:28:33;;;;;;;;;;;14.20;97.80;;;;;;4988398;28;20033;-92
2023/10/09 02:31:09;;;;;;;4.63;3.05;;;14.30;97.40;;;;;;4989836;28;19991;-93
2023/10/09 02:33:36;;;;;;;3.00;2.75;;;14.30;98.00;;;;;;5008129;28;20034;-93
2023/10/09 02:36:05;;;;;;;4.75;2.55;;;14.20;97.40;;;;;;5018790;28;20026;-91
2023/10/09 02:38:37;;;;;;;4.03;2.45;;;14.20;97.10;;;;;;5016655;28;20113;-93
2023/10/09 02:43:44;;;;;;;4.43;4.13;;;14.20;96.60;;;;;;5013371;28;20045;-92
2023/10/09 02:46:17;;;;;;;3.42;3.13;;;14.20;96.70;;;;;;5021005;28;20030;-92
2023/10/09 02:48:52;;;;;;;4.28;2.80;;;14.20;96.40;;;;;;5025133;28;20034;-94
2023/10/09 02:53:55;;;;;;;3.30;2.95;;;14.20;96.40;;;;;;5031559;28;20036;-91
2023/10/09 02:56:24;;;;;;;3.97;3.25;;;14.20;96.30;;;;;;5002732;28;20034;-92
2023/10/09 02:58:54;;;;;;;4.38;2.47;;;14.20;96.10;;;;;;5014107;28;20076;-92
2023/10/09 03:01:20;;;;;;;3.28;2.78;;;14.10;96.30;;;;;;5001906;28;20033;-92
2023/10/09 03:03:47;;;;;;;3.97;3.08;;;14.10;96.30;;;;;;4987041;28;20035;-91
2023/10/09 03:06:28;;;;;;;3.80;2.88;;;14.10;96.70;;;;;;4984283;28;20027;-92
2023/10/09 03:08:54;;;;;;;4.07;3.67;;;14.00;96.60;;;;;;4990868;28;20026;-92
2023/10/09 03:11:20;;;;;;;6.53;3.60;;;14.00;97.00;;;;;;4984845;28;20026;-94
2023/10/09 03:13:47;;;;;;;3.95;3.50;;;14.00;97.20;;;;;;5013721;28;20029;-91
2023/10/09 03:16:19;;;;;;;4.78;3.35;;;14.00;97.40;;;;;;5002922;28;20030;-93
2023/10/09 03:18:51;;;;;;;3.03;2.72;;;14.00;97.20;;;;;;5020090;28;20105;-93
2023/10/09 03:21:17;;;;;;;3.72;2.83;;;14.00;97.20;;;;;;5021001;28;20077;-92
2023/10/09 03:23:49;;;;;;;3.72;3.42;;;14.00;97.00;;;;;;5004108;28;20037;-92
2023/10/09 03:26:19;;;;;;;3.65;3.30;;;14.10;97.00;;;;;;4991827;28;20027;-91
2023/10/09 03:28:48;;;;;;;4.13;3.72;;;14.00;96.50;;;;;;4997625;28;20027;-90
2023/10/09 03:31:14;;;;;;;3.55;2.85;;;14.10;96.40;;;;;;5024887;28;20041;-91
2023/10/09 03:33:41;;;;;;;3.95;2.97;;;14.10;96.10;;;;;;5027616;28;20022;-93
2023/10/09 03:36:10;;;;;;;3.65;3.35;;;14.20;96.30;;;;;;5027645;28;20032;-92
2023/10/09 03:38:38;;;;;;;3.38;2.72;;;14.10;96.60;;;;;;5004177;28;20026;-91
2023/10/09 03:41:12;;;;;;;4.22;3.92;;;14.10;96.60;;;;;;5019296;28;20506;-92
2023/10/09 03:43:41;;;;;;;4.05;3.65;;;14.10;97.10;;;;;;5027955;23;20034;-89
2023/10/09 03:46:32;;;;;;;3.65;3.33;;;14.10;97.40;;;;;;5015431;28;20029;-90
2023/10/09 03:49:00;;;;;;;4.03;2.65;;;14.00;97.90;;;;;;4988617;28;20041;-90
2023/10/09 03:51:29;;;;;;;3.45;3.05;;;13.80;98.80;;;;;;5017520;28;20026;-90
2023/10/09 03:53:55;;;;;;;4.70;4.30;;;13.80;99.00;;;;;;5014108;28;20083;-90
2023/10/09 03:56:21;;;;;;;2.88;2.60;;;13.80;99.00;;;;;;5006071;28;20022;-91
2023/10/09 03:58:49;;;;;;;3.75;3.05;;;13.70;99.70;;;;;;4981997;28;20026;-89
2023/10/09 04:01:24;;;;;;;4.57;2.90;;;13.70;99.60;;;;;;4993166;28;20077;-93
2023/10/09 04:04:00;;;;;;;4.47;2.75;;;13.70;99.90;;;;;;5014473;28;20112;-91
2023/10/09 04:06:38;;;;;;;3.20;2.88;;;13.60;99.90;;;;;;5001693;28;20022;-91
2023/10/09 04:11:50;;;;;;;4.57;3.28;;;13.70;99.90;;;;;;5021114;28;20029;-91
2023/10/09 04:14:35;;;;;;;3.38;3.03;;;13.60;99.90;;;;;;5020051;28;20037;-92
2023/10/09 04:17:04;;;;;;;3.97;3.30;;;13.60;99.90;;;;;;5006071;28;20037;-91
2023/10/09 04:19:48;;;;;;;5.85;3.03;;;13.60;99.90;;;;;;4993440;28;20064;-90
2023/10/09 04:22:27;;;;;;;5.57;3.22;;;13.60;99.90;;;;;;4970953;28;20050;-91
2023/10/09 04:24:53;;;;;;;3.88;2.65;;;13.50;99.90;;;;;;4979585;28;20510;-91
2023/10/09 04:27:26;;;;;;;3.03;2.42;;;13.50;99.90;;;;;;5015222;28;20026;-92
2023/10/09 04:29:54;;;;;;;3.67;3.33;;;13.50;99.90;;;;;;5008017;28;20022;-90
2023/10/09 04:32:23;;;;;;;4.15;3.78;;;13.50;99.90;;;;;;4997247;28;20026;-91
2023/10/09 04:34:49;;;;;;;3.60;2.55;;;13.50;99.90;;;;;;5010803;28;20026;-90
2023/10/09 04:39:47;;;;;;;5.03;2.75;;;13.50;99.90;;;;;;5000703;28;20045;-90
2023/10/09 04:47:36;;;;;;;4.43;3.63;;;13.50;99.90;;;;;;5017036;28;20643;-91
2023/10/09 05:00:35;;;;;;;2.50;1.85;;;13.50;99.90;;;;;;5016221;28;20395;-90
2023/10/09 05:03:12;;;;;;;3.63;3.13;;;13.50;99.90;;;;;;5005883;28;20050;-93
2023/10/09 05:16:25;;;;;;;5.15;3.50;;;13.40;99.90;;;;;;5019305;28;20034;-92
2023/10/09 05:19:05;;;;;;;4.55;3.42;;;13.50;99.90;;;;;;5007100;28;20037;-92
2023/10/09 05:32:15;;;;;;;;;;;;;;;;;;;;;
2023/10/09 05:34:36;;;;;;;3.63;3.30;;;13.40;99.90;;;;;;5007141;28;20033;-91
2023/10/09 05:37:24;;;;;;;3.90;2.97;;;13.40;99.90;;;;;;5004326;28;20030;-93
2023/10/09 05:48:33;;;;;;;3.97;3.67;;;13.30;99.90;;;;;;5010878;28;20030;-91
2023/10/09 06:04:15;;;;;;;3.78;3.47;;;13.40;99.90;;;;;;4989444;28;20030;-92
2023/10/09 06:06:44;;;;;;;6.43;3.65;;;13.40;99.90;;;;;;4971675;28;20031;-91
2023/10/09 06:14:49;;;;;;;3.72;3.40;;;13.50;99.90;;;;;;4997392;28;20027;-91
2023/10/09 06:19:43;;;;;;;4.25;2.92;;;13.50;99.90;;;;;;4991278;28;20030;-90
2023/10/09 06:22:56;;;;;;;3.60;2.42;;;13.50;99.70;;;;;;4992291;28;20424;-91
2023/10/09 06:25:12;;;;;;;4.70;4.30;;;13.50;99.70;;;;;;4996698;28;20038;-91
2023/10/09 06:32:57;;;;;;;4.97;3.90;;;13.70;99.20;;;;;;5008255;28;20033;-91
2023/10/09 06:35:32;;;;;;;4.45;3.38;;;13.70;99.10;;;;;;5003730;28;20033;-92
2023/10/09 06:45:54;;;;;;;3.00;2.63;;;13.90;98.50;;;;;;5002390;28;20027;-91
2023/10/09 06:51:12;;;;;;;4.50;2.30;;;14.00;98.00;;;;;;5004437;28;20495;-92
2023/10/09 06:59:21;;;;;;;3.20;2.90;;;14.10;97.50;;;;;;5007855;28;20085;-90
2023/10/09 07:02:11;;;;;;;6.60;1.77;;;14.20;96.90;;;;;;5016325;28;20403;-92
2023/10/09 07:07:12;;;;;;;4.18;3.00;;;14.40;95.90;;;;;;5012915;28;20473;-92
2023/10/09 07:12:27;;;;;;;6.95;4.10;;;14.50;95.70;;;;;;5017843;28;20092;-92
2023/10/09 07:15:40;;;;;;;4.82;3.20;;;14.50;96.00;;;;;;4998485;28;20100;-93
2023/10/09 07:17:47;;;;;;;4.18;3.78;;;14.50;96.00;;;;;;5019847;28;20030;-91
2023/10/09 07:20:13;;;;;;;5.07;2.65;;;14.60;95.40;;;;;;5009680;28;20111;-93
2023/10/09 07:23:13;;;;;;;4.25;3.40;;;14.60;95.40;;;;;;5011342;28;20030;-93
2023/10/09 07:25:40;;;;;;;6.35;3.03;;;14.70;95.10;;;;;;5011074;28;20038;-93
2023/10/09 07:30:57;;;;;;;3.80;3.38;;;14.80;94.80;;;;;;5013621;28;20044;-92
2023/10/09 07:33:33;;;;;;;5.05;3.42;;;14.80;95.30;;;;;;4999212;28;20045;-92
2023/10/09 07:36:07;;;;;;;3.30;2.80;;;14.90;94.90;;;;;;5017330;28;20041;-92
2023/10/09 07:38:36;;;;;;;3.65;2.90;;;14.90;94.50;;;;;;5009374;28;20054;-92
2023/10/09 07:46:32;;;;;;;5.35;3.58;;;15.10;93.80;;;;;;5011831;28;20030;-92
2023/10/09 07:49:09;;;;;;;4.63;2.88;;;15.30;92.60;;;;;;5008504;28;20027;-92
2023/10/09 07:51:43;;;;;;;3.67;3.15;;;15.30;93.00;;;;;;5011790;28;20049;-92
2023/10/09 07:54:09;;;;;;;;;;;15.40;91.90;;;;;;4997991;28;20068;-91
2023/10/09 07:56:48;;;;;;;3.80;3.40;;;15.50;92.50;;;;;;5007721;28;19910;-92
2023/10/09 07:59:19;;;;;;;5.20;3.00;;;15.50;92.10;;;;;;5012480;28;20086;-91
2023/10/09 08:01:53;;;;;;;4.47;3.50;;;15.50;91.80;;;;;;4999358;28;20022;-93
2023/10/09 08:04:39;;;;;;;5.47;3.97;;;15.60;90.60;;;;;;4993316;28;20041;-92
2023/10/09 08:07:09;;;;;;;5.00;3.78;;;15.60;91.00;;;;;;5016488;28;20032;-92
2023/10/09 08:09:46;;;;;;;6.45;3.42;;;15.80;91.40;;;;;;5018085;28;20049;-96
2023/10/09 08:14:42;;;;;;;5.82;3.53;;;16.00;89.40;;;;;;4999768;28;20100;-91
2023/10/09 08:17:14;;;;;;;4.95;2.75;;;16.10;88.60;;;;;;5010242;28;20022;-91
2023/10/09 08:19:53;;;;;;;4.80;3.58;;;16.30;88.50;;;;;;5007852;28;20500;-92
2023/10/09 08:24:56;;;;;;;4.80;2.40;;;16.40;86.30;;;;;;5010293;28;20030;-92
2023/10/09 08:35:33;;;;;;;4.75;3.40;;;16.70;86.60;;;;;;5011470;28;20036;-91
2023/10/09 08:38:10;;;;;;;4.82;4.20;;;16.80;86.10;;;;;;5013834;28;20029;-91
2023/10/09 08:40:39;;;;;;;5.38;2.47;;;16.90;84.70;;;;;;5012129;28;20022;-92
2023/10/09 08:43:18;;;;;;;4.38;2.33;;;17.00;83.90;;;;;;5000417;28;20427;-92
2023/10/09 08:45:47;;;;;;;3.55;2.90;;;17.20;84.10;;;;;;5014056;28;20077;-91
2023/10/09 08:48:16;;;;;;;4.40;2.97;;;17.30;83.70;;;;;;5010785;28;20476;-93
2023/10/09 08:50:43;;;;;;;6.18;3.15;;;17.50;83.40;;;;;;5010812;28;20015;-92
2023/10/09 08:53:11;;;;;;;6.82;2.97;;;17.50;82.50;;;;;;5009611;28;20018;-90
2023/10/09 08:55:41;;;;;;;4.88;2.88;;;17.50;83.00;;;;;;5019956;28;20022;-92
2023/10/09 08:58:32;;;;;;;4.32;2.72;;;17.60;82.10;;;;;;5006193;28;20025;-93
2023/10/09 09:00:55;;;;;;;5.45;3.28;;;17.70;82.40;;;;;;5004737;28;20034;-92
2023/10/09 09:03:25;;;;;;;5.35;2.47;;;17.90;82.00;;;;;;5013170;28;20017;-92
2023/10/09 09:06:04;;;;;;;6.85;3.20;;;17.90;80.70;;;;;;5011821;28;20078;-92
2023/10/09 09:08:36;;;;;;;6.45;3.13;;;18.10;79.20;;;;;;5016950;28;21473;-92
2023/10/09 09:11:12;;;;;;;4.80;3.33;;;18.30;79.70;;;;;;4990441;28;20076;-92
2023/10/09 09:13:42;;;;;;;4.93;3.38;;;18.40;78.80;;;;;;5016014;28;20037;-92
2023/10/09 09:16:16;;;;;;;6.55;2.90;;;18.60;78.80;;;;;;5006271;28;20022;-92
2023/10/09 09:19:11;;;;;;;5.93;3.10;;;18.90;76.80;;;;;;5011248;28;20029;-92
2023/10/09 09:21:38;;;;;;;6.75;3.35;;;18.90;75.90;;;;;;5008889;28;20030;-92
2023/10/09 09:24:26;;;;;;;3.05;2.67;;;19.00;75.40;;;;;;5014325;28;20041;-92
2023/10/09 09:27:00;;;;;;;3.33;3.03;;;19.30;74.00;;;;;;4986585;28;20488;-93
2023/10/09 09:29:37;;;;;;;5.47;3.22;;;19.40;75.10;;;;;;5009062;28;20425;-91
2023/10/09 09:32:20;;;;;;;5.03;3.15;;;19.60;72.90;;;;;;5017069;28;20041;-93
2023/10/09 09:34:57;;;;;;;6.70;2.80;;;19.60;71.40;;;;;;4990797;28;20080;-92
2023/10/09 09:40:15;;;;;;;4.25;3.30;;;19.90;70.10;;;;;;5008884;28;20082;-92
2023/10/09 09:42:48;;;;;;;5.32;2.75;;;20.00;70.40;;;;;;5014871;28;20030;-92
2023/10/09 09:45:16;;;;;;;4.95;2.60;;;20.30;70.20;;;;;;4984286;28;20033;-92
2023/10/09 09:47:51;;;;;;;4.18;2.72;;;20.40;67.40;;;;;;5007607;28;20019;-93
2023/10/09 09:50:29;;;;;;;6.68;3.40;;;20.60;68.10;;;;;;4997102;28;20034;-93
2023/10/09 09:52:56;;;;;;;5.38;2.30;;;20.80;67.50;;;;;;5002331;28;20483;-92
2023/10/09 09:55:32;;;;;;;6.40;3.33;;;20.80;67.00;;;;;;4998536;28;20117;-93
2023/10/09 09:58:07;;;;;;;5.28;2.72;;;20.80;66.80;;;;;;5015291;28;20018;-92
2023/10/09 10:03:16;;;;;;;5.00;2.78;;;21.10;66.20;;;;;;5018847;28;20045;-92
2023/10/09 10:05:46;;;;;;;5.18;3.13;;;21.20;66.20;;;;;;4992729;28;20031;-91
2023/10/09 10:08:21;;;;;;;6.18;2.78;;;21.30;64.30;;;;;;5009700;28;20033;-92
2023/10/09 10:10:49;;;;;;;7.07;3.20;;;21.20;65.00;;;;;;5015249;28;20018;-93
2023/10/09 10:13:23;;;;;;;5.53;2.97;;;21.30;65.40;;;;;;5010188;28;20021;-93
2023/10/09 10:15:58;;;;;;;7.43;3.60;;;21.20;64.70;;;;;;4998395;28;20090;-93
2023/10/09 10:18:24;;;;;;;4.97;2.65;;;21.10;64.80;;;;;;5002004;28;20022;-92
2023/10/09 10:21:14;;;;;;;4.88;3.42;;;21.10;64.40;;;;;;5016543;28;20029;-94
2023/10/09 10:23:46;;;;;;;6.70;3.10;;;21.10;64.20;;;;;;5009156;28;20053;-94
2023/10/09 10:26:18;;;;;;;4.15;2.50;;;21.10;62.60;;;;;;5018390;28;20022;-91
2023/10/09 10:28:45;;;;;;;3.78;2.20;;;21.30;63.00;;;;;;5007421;28;20018;-92
2023/10/09 10:31:13;;;;;;;;;;;21.60;61.80;;;;;;5008792;28;20023;-92
2023/10/09 10:33:58;;;;;;;4.70;2.78;;;22.00;60.40;;;;;;5005051;28;19981;-94
2023/10/09 10:36:26;;;;;;;3.78;2.40;;;22.60;58.30;;;;;;5019850;28;20093;-93
2023/10/09 10:39:04;;;;;;;6.25;2.53;;;22.40;58.50;;;;;;5016247;28;20457;-93
2023/10/09 10:41:35;;;;;;;4.95;2.55;;;22.50;58.90;;;;;;5000523;28;20042;-93
2023/10/09 10:44:33;;;;;;;3.42;2.63;;;22.60;57.00;;;;;;5007751;28;20065;-91
2023/10/09 10:46:57;;;;;;;4.63;2.33;;;22.30;58.50;;;;;;5007555;28;20026;-92
2023/10/09 10:49:25;;;;;;;5.70;2.95;;;22.10;59.90;;;;;;4997860;28;20038;-93
2023/10/09 10:52:01;;;;;;;5.43;2.25;;;22.00;60.00;;;;;;5021303;28;20030;-92
2023/10/09 10:57:00;;;;;;;6.22;3.40;;;21.80;60.30;;;;;;5015350;28;20040;-93
2023/10/09 10:59:36;;;;;;;4.22;2.90;;;21.80;60.10;;;;;;5016421;28;20034;-91
2023/10/09 11:07:09;;;;;;;4.60;3.10;;;21.60;62.00;;;;;;5020858;28;20026;-92
2023/10/09 11:15:45;;;;;;;5.22;2.78;;;21.50;61.70;;;;;;5017403;28;20050;-91
2023/10/09 11:18:20;;;;;;;;;;;21.40;62.60;;;;;;4991167;28;20030;-92
2023/10/09 11:23:38;;;;;;;5.68;3.33;;;21.40;62.60;;;;;;5015782;28;20026;-93
2023/10/09 11:26:25;;;;;;;5.13;2.85;;;21.50;62.10;;;;;;5015006;28;20541;-92
2023/10/09 11:32:05;;;;;;;4.53;3.03;;;21.70;61.70;;;;;;5017376;28;20033;-92
2023/10/09 11:34:31;;;;;;;;;;;22.00;60.90;;;;;;5014260;28;20025;-92
2023/10/09 11:37:15;;;;;;;5.53;2.83;;;22.20;60.30;;;;;;5015316;28;19964;-92
2023/10/09 11:40:00;;;;;;;5.38;2.55;;;22.30;59.80;;;;;;5031407;28;20033;-92
2023/10/09 11:42:36;;;;;;;6.32;2.88;;;22.40;59.90;;;;;;5022103;28;20125;-92
2023/10/09 11:48:00;;;;;;;2.88;2.28;;;23.00;58.00;;;;;;5009110;28;20041;-93
2023/10/09 11:53:32;;;;;;;4.57;2.75;;;23.40;56.20;;;;;;5009982;28;20030;-93
2023/10/09 11:55:59;;;;;;;4.13;2.75;;;23.60;54.40;;;;;;5016753;28;20025;-91
2023/10/09 11:58:24;;;;;;;5.47;2.78;;;23.80;54.00;;;;;;5021955;28;20526;-90
2023/10/09 12:00:56;;;;;;;6.47;3.05;;;23.80;51.10;;;;;;5015752;28;20026;-89
2023/10/09 12:03:28;;;;;;;3.63;2.33;;;24.40;51.20;;;;;;5010543;28;20105;-91
2023/10/09 12:05:57;;;;;;;4.63;2.00;;;24.90;50.00;;;;;;5006121;28;20038;-90
2023/10/09 12:08:26;;;;;;;5.68;3.22;;;25.50;47.80;;;;;;5017194;28;20129;-91
2023/10/09 12:10:54;;;;;;;4.82;2.40;;;26.00;47.20;;;;;;5014170;28;20029;-91
2023/10/09 12:13:23;;;;;;;9.00;2.33;;;26.10;46.70;;;;;;4995100;28;20772;-93
2023/10/09 12:15:55;;;;;;;6.18;2.13;;;25.50;46.30;;;;;;5000309;28;20027;-91
2023/10/09 12:18:23;;;;;;;6.68;3.08;;;25.50;45.00;;;;;;5001253;28;20025;-91
2023/10/09 12:20:50;;;;;;;6.43;3.00;;;24.90;48.30;;;;;;5004271;28;20018;-93
2023/10/09 12:23:17;;;;;;;7.68;2.80;;;25.50;47.90;;;;;;4982667;28;20579;-92
2023/10/09 12:25:46;;;;;;;6.13;2.13;;;25.90;45.50;;;;;;4976742;28;20042;-91
2023/10/09 12:28:12;;;;;;;6.18;2.80;;;25.70;45.40;;;;;;4998464;28;20085;-91
2023/10/09 12:30:41;;;;;;;6.32;3.05;;;25.30;47.40;;;;;;5001373;28;20030;-91
2023/10/09 12:33:08;;;;;;;4.88;2.83;;;25.40;50.20;;;;;;4999371;28;20079;-96
2023/10/09 12:35:38;;;;;;;5.22;2.78;;;25.80;47.70;;;;;;5001205;28;20044;-92
2023/10/09 12:38:09;;;;;;;6.50;2.75;;;26.10;47.20;;;;;;4983412;28;20052;-92
2023/10/09 12:40:41;;;;;;;6.05;2.78;;;26.20;46.50;;;;;;5001106;28;20041;-91
2023/10/09 12:43:15;;;;;;;5.93;2.05;;;26.40;46.40;;;;;;5006576;28;20558;-90
2023/10/09 12:45:42;;;;;;;7.20;3.50;;;26.50;45.20;;;;;;4988569;28;20064;-91
2023/10/09 12:48:09;;;;;;;5.75;2.83;;;26.90;44.70;;;;;;5009906;28;20096;-92
2023/10/09 12:50:41;;;;;;;4.00;1.85;;;26.40;45.20;;;;;;5014922;28;20044;-93
2023/10/09 12:53:08;;;;;;;5.65;1.95;;;26.30;44.90;;;;;;5014160;28;20022;-91
2023/10/09 12:55:43;;;;;;;;;;;27.00;43.30;;;;;;5004390;28;20054;-87
2023/10/09 12:58:14;;;;;;;7.15;2.60;;;27.10;44.50;;;;;;5002466;28;19967;-88
2023/10/09 13:00:49;;;;;;;7.07;2.65;;;27.20;43.20;;;;;;4981617;28;20022;-89
2023/10/09 13:03:28;;;;;;;7.05;2.30;;;27.60;42.00;;;;;;4974730;28;20027;-89
2023/10/09 13:05:57;;;;;;;5.78;2.47;;;27.40;42.60;;;;;;4983903;28;20041;-89
2023/10/09 13:08:39;;;;;;;7.93;2.53;;;27.30;42.40;;;;;;4973836;28;20757;-89
2023/10/09 13:11:10;;;;;;;6.63;3.17;;;26.70;43.40;;;;;;4983976;28;20026;-89
2023/10/09 13:13:41;;;;;;;9.48;3.55;;;26.80;43.20;;;;;;4995686;28;20069;-87
2023/10/09 13:16:23;;;;;;;10.40;2.53;;;27.40;41.50;;;;;;4995214;28;20861;-89
2023/10/09 13:18:59;;;;;;;7.22;2.47;;;27.70;40.80;;;;;;4975079;28;20030;-89
2023/10/09 13:21:26;;;;;;;7.88;2.92;;;27.40;40.90;;;;;;4997712;28;20026;-89
2023/10/09 13:23:57;;;;;;;6.93;2.83;;;28.10;40.50;;;;;;4974876;28;20031;-90
2023/10/09 13:26:34;;;;;;;5.22;2.42;;;28.70;38.70;;;;;;4978432;28;20404;-90
2023/10/09 13:29:08;;;;;;;8.43;2.42;;;28.50;39.30;;;;;;4993700;28;20030;-90
2023/10/09 13:31:37;;;;;;;5.55;2.42;;;28.70;37.80;;;;;;4994726;28;20039;-87
2023/10/09 13:34:09;;;;;;;5.50;2.15;;;28.40;38.90;;;;;;4999721;28;20129;-87
2023/10/09 13:36:37;;;;;;;9.30;3.35;;;28.90;37.00;;;;;;4993030;28;20046;-89
2023/10/09 13:39:26;;;;;;;7.05;2.15;;;28.60;38.60;;;;;;4990020;28;20499;-90
2023/10/09 13:42:05;;;;;;;9.98;3.33;;;29.00;37.50;;;;;;4994558;28;20044;-89
2023/10/09 13:44:33;;;;;;;7.82;3.13;;;29.00;36.80;;;;;;4993475;28;20073;-88
2023/10/09 13:47:05;;;;;;;7.85;2.72;;;29.10;36.50;;;;;;4997704;28;20029;-88
2023/10/09 13:49:34;;;;;;;5.43;2.45;;;28.80;36.90;;;;;;5002637;28;20085;-88
2023/10/09 13:52:02;;;;;;;5.70;2.70;;;28.50;38.00;;;;;;4994744;28;20150;-91
2023/10/09 13:54:39;;;;;;;6.78;3.03;;;27.90;38.60;;;;;;4982028;28;20038;-89
2023/10/09 13:57:06;;;;;;;4.70;3.03;;;27.40;39.90;;;;;;4992649;28;20173;-87
2023/10/09 13:59:34;;;;;;;4.90;2.15;;;27.00;41.70;;;;;;4993620;28;20032;-89
2023/10/09 14:02:02;;;;;;;6.55;2.70;;;27.20;42.00;;;;;;4980143;28;20058;-91
2023/10/09 14:04:28;;;;;;;7.05;2.42;;;27.60;41.10;;;;;;4990964;28;20034;-89
2023/10/09 14:06:58;;;;;;;6.00;2.15;;;27.70;39.80;;;;;;4993080;28;20029;-88
2023/10/09 14:09:54;;;;;;;6.15;3.28;;;27.10;42.10;;;;;;4995207;28;20038;-88
2023/10/09 14:12:21;;;;;;;5.97;2.50;;;27.00;42.80;;;;;;4979967;28;20038;-90
2023/10/09 14:14:48;;;;;;;4.13;2.80;;;26.60;43.40;;;;;;4995602;28;20801;-89
2023/10/09 14:17:23;;;;;;;7.82;2.15;;;26.70;44.30;;;;;;4980971;28;20092;-87
2023/10/09 14:19:51;;;;;;;5.85;2.38;;;27.00;44.70;;;;;;4992510;28;20085;-87
2023/10/09 14:22:38;;;;;;;7.13;2.20;;;27.00;44.00;;;;;;4999440;28;20053;-88
2023/10/09 14:25:12;;;;;;;7.28;2.58;;;27.40;42.70;;;;;;4995758;28;20034;-87
2023/10/09 14:27:41;;;;;;;6.20;2.55;;;27.40;41.80;;;;;;4981188;28;20040;-87
2023/10/09 14:30:12;;;;;;;5.85;2.38;;;27.50;41.40;;;;;;5003833;28;20022;-87
2023/10/09 14:32:47;;;;;;;9.82;3.47;;;27.30;40.60;;;;;;5007941;28;20022;-89
2023/10/09 14:35:13;;;;;;;7.07;2.85;;;27.30;40.60;;;;;;4999099;28;20057;-87
2023/10/09 14:37:40;;;;;;;6.13;2.45;;;27.20;40.90;;;;;;5002012;28;20045;-88
2023/10/09 14:40:12;;;;;;;7.13;2.83;;;26.80;40.60;;;;;;4986306;28;20029;-86
2023/10/09 14:42:44;;;;;;;8.23;2.65;;;26.90;40.90;;;;;;5002010;28;20133;-88
2023/10/09 14:45:15;;;;;;;7.97;2.35;;;27.10;41.20;;;;;;4999592;28;20034;-86
2023/10/09 14:47:47;;;;;;;7.13;2.92;;;27.60;39.70;;;;;;4986496;28;20034;-88
2023/10/09 14:50:13;;;;;;;6.70;2.80;;;28.10;38.80;;;;;;5002423;28;20021;-85
2023/10/09 14:52:40;;;;;;;8.68;3.25;;;28.00;39.10;;;;;;4981150;28;20026;-87
2023/10/09 14:55:06;;;;;;;;;;;27.70;39.10;;;;;;4979133;28;20044;-87
2023/10/09 14:57:33;;;;;;;9.73;2.97;;;27.40;40.70;;;;;;4996734;28;19992;-89
2023/10/09 15:00:01;;;;;;;5.85;2.42;;;27.10;40.50;;;;;;4998135;28;20022;-88
2023/10/09 15:02:26;;;;;;;6.47;3.05;;;26.60;41.80;;;;;;4999021;28;20034;-87
2023/10/09 15:04:52;;;;;;;7.00;2.70;;;26.50;41.90;;;;;;5002366;28;20060;-88
2023/10/09 15:07:20;;;;;;;8.32;3.58;;;26.40;42.10;;;;;;4998778;28;20045;-88
2023/10/09 15:09:46;;;;;;;7.75;2.80;;;26.20;41.50;;;;;;5000624;28;21790;-89
2023/10/09 15:12:12;;;;;;;4.97;2.75;;;26.00;41.70;;;;;;4984457;28;20027;-85
2023/10/09 15:14:39;;;;;;;7.78;2.75;;;25.70;42.80;;;;;;4978544;28;20034;-87
2023/10/09 15:17:06;;;;;;;7.85;3.13;;;25.40;43.50;;;;;;4971814;28;20106;-89
2023/10/09 15:19:32;;;;;;;6.53;3.53;;;25.30;43.90;;;;;;4999205;28;20034;-86
2023/10/09 15:22:09;;;;;;;6.72;2.70;;;25.20;43.40;;;;;;4981352;28;20033;-89
2023/10/09 15:24:36;;;;;;;6.43;3.75;;;25.10;43.80;;;;;;4979863;28;20027;-89
2023/10/09 15:27:02;;;;;;;5.85;2.97;;;25.10;44.50;;;;;;4995109;28;20022;-89
2023/10/09 15:29:30;;;;;;;6.25;2.50;;;25.10;44.80;;;;;;5004420;28;20065;-90
2023/10/09 15:32:00;;;;;;;7.35;2.63;;;25.10;45.60;;;;;;4997201;28;20026;-87
2023/10/09 15:34:27;;;;;;;9.00;3.53;;;24.80;46.20;;;;;;5002237;28;20034;-87
2023/10/09 15:36:53;;;;;;;10.88;3.08;;;24.80;46.70;;;;;;4999206;28;20027;-86
2023/10/09 15:39:19;;;;;;;6.22;2.92;;;24.60;47.60;;;;;;5006257;28;20068;-87
2023/10/09 15:41:55;;;;;;;7.90;3.25;;;24.50;48.30;;;;;;5001232;28;20038;-89
2023/10/09 15:44:24;;;;;;;7.15;3.13;;;24.60;48.80;;;;;;4998640;28;20041;-87
2023/10/09 15:46:59;;;;;;;7.78;2.97;;;24.50;49.90;;;;;;4997129;28;20030;-91
2023/10/09 15:49:27;;;;;;;7.75;2.55;;;24.50;50.00;;;;;;4996588;28;20025;-90
2023/10/09 15:51:55;;;;;;;5.72;3.25;;;24.40;49.90;;;;;;4992736;28;20080;-90
2023/10/09 15:54:21;;;;;;;5.88;2.42;;;24.30;51.40;;;;;;4988536;28;20069;-90
2023/10/09 15:56:47;;;;;;;5.95;3.20;;;24.20;51.40;;;;;;4994183;28;20044;-90
2023/10/09 15:59:13;;;;;;;7.22;3.13;;;24.20;51.80;;;;;;5000240;28;20080;-91
2023/10/09 16:01:42;;;;;;;7.47;2.80;;;24.10;52.00;;;;;;4991445;28;20038;-90
2023/10/09 16:04:11;;;;;;;5.80;2.63;;;24.10;52.10;;;;;;4975839;28;20140;-90
2023/10/09 16:06:41;;;;;;;6.20;2.80;;;23.90;52.90;;;;;;4980987;28;20611;-90
2023/10/09 16:09:21;;;;;;;7.40;3.42;;;23.80;52.90;;;;;;5010729;28;20022;-89
2023/10/09 16:11:47;;;;;;;6.45;3.17;;;23.80;52.90;;;;;;5014584;28;20026;-89
2023/10/09 16:14:15;;;;;;;8.40;3.45;;;23.80;53.30;;;;;;4998019;28;20110;-89
2023/10/09 16:16:41;;;;;;;7.70;3.70;;;23.80;53.50;;;;;;4997938;28;20018;-89
2023/10/09 16:19:09;;;;;;;6.55;3.25;;;23.70;53.80;;;;;;5001323;28;20054;-91